Time;durP1;ratioP1;P1;durP2;ratioP2;P2;SDS_P1;SDS_P2;PMS_P1;PMS_P2;Temp;Humidity;BMP_temperature;BMP_pressure;BME280_temperature;BME280_humidity;BME280_pressure;Samples;Min_cycle;Max_cycle;Signal;HPM_P1;HPM_P2
2023/02/17 00:00:20;;;;;;;;;;;;;;;29.66;16.20;101553.53;5070561;28;1079;-21
2023/02/17 00:02:46;;;;;;;;;;;;;;;29.60;15.98;101551.53;5078710;28;1071;-23
2023/02/17 00:05:11;;;;;;;;;;;;;;;29.61;16.12;101547.81;5078991;28;1056;-21
2023/02/17 00:07:36;;;;;;;;;;;;;;;29.70;16.05;101545.88;5079047;28;1075;-25
2023/02/17 00:10:02;;;;;;;;;;;;;;;29.75;16.10;101542.63;5078453;28;1288;-21
2023/02/17 00:12:27;;;;;;;;;;;;;;;29.64;16.01;101546.59;5078204;28;1090;-21
2023/02/17 00:14:52;;;;;;;;;;;;;;;29.68;16.15;101543.34;5078804;28;1095;-23
2023/02/17 00:17:18;;;;;;;;;;;;;;;29.59;15.79;101539.03;5078352;28;1886;-21
2023/02/17 00:19:43;;;;;;;;;;;;;;;29.67;15.91;101538.09;5078592;28;1121;-24
2023/02/17 00:22:08;;;;;;;;;;;;;;;29.64;16.12;101538.47;5078861;28;1051;-26
2023/02/17 00:24:36;;;;;;;;;;;;;;;29.68;15.82;101529.78;5078685;28;1063;-23
2023/02/17 00:27:01;;;;;;;;;;;;;;;29.62;15.95;101522.41;5078431;28;1012;-22
2023/02/17 00:29:26;;;;;;;;;;;;;;;29.72;15.98;101530.28;5078493;28;1032;-25
2023/02/17 00:31:52;;;;;;;;;;;;;;;29.66;16.03;101526.41;5077325;28;1259;-25
2023/02/17 00:34:17;;;;;;;;;;;;;;;29.78;15.93;101523.28;5078401;28;1051;-23
2023/02/17 00:36:42;;;;;;;;;;;;;;;29.64;15.86;101512.22;5078713;28;1965;-21
2023/02/17 00:39:08;;;;;;;;;;;;;;;29.67;15.92;101511.00;5078648;28;1111;-24
2023/02/17 00:41:33;;;;;;;;;;;;;;;29.69;16.13;101512.50;5078008;28;1121;-22
2023/02/17 00:43:58;;;;;;;;;;;;;;;29.58;16.05;101504.75;5078396;28;1099;-23
2023/02/17 00:46:24;;;;;;;;;;;;;;;29.62;16.06;101508.84;5077350;28;1109;-21
2023/02/17 00:48:49;;;;;;;;;;;;;;;29.68;16.33;101505.38;5078747;28;1155;-22
2023/02/17 00:51:15;;;;;;;;;;;;;;;29.55;16.28;101495.13;5077643;28;1058;-22
2023/02/17 00:53:40;;;;;;;;;;;;;;;29.66;16.31;101499.28;5078540;28;1067;-20
2023/02/17 00:56:05;;;;;;;;;;;;;;;29.49;16.41;101495.88;5077836;28;1957;-23
2023/02/17 00:58:31;;;;;;;;;;;;;;;28.46;16.49;101486.72;5077686;28;1125;-21
2023/02/17 01:00:56;;;;;;;;;;;;;;;27.89;16.79;101482.25;5077935;28;1075;-21
2023/02/17 01:03:21;;;;;;;;;;;;;;;28.75;17.15;101486.28;5078133;28;1193;-23
2023/02/17 01:05:47;;;;;;;;;;;;;;;29.30;16.30;101484.47;5077500;28;1068;-23
2023/02/17 01:08:12;;;;;;;;;;;;;;;29.45;16.23;101475.56;5078037;28;1186;-24
2023/02/17 01:10:39;;;;;;;;;;;;;;;29.41;16.26;101474.25;5077217;28;1126;-21
2023/02/17 01:13:04;;;;;;;;;;;;;;;29.31;16.38;101466.34;5077520;28;1047;-23
2023/02/17 01:15:31;;;;;;;;;;;;;;;29.40;16.37;101470.69;5077911;28;1123;-22
2023/02/17 01:17:57;;;;;;;;;;;;;;;29.50;16.41;101464.16;5077839;28;1906;-25
2023/02/17 01:20:22;;;;;;;;;;;;;;;29.48;16.41;101474.38;5077987;28;1052;-26
2023/02/17 01:22:47;;;;;;;;;;;;;;;29.46;16.47;101469.13;5077188;28;1087;-26
2023/02/17 01:25:12;;;;;;;;;;;;;;;29.48;16.43;101461.63;5077039;28;1043;-23
2023/02/17 01:27:38;;;;;;;;;;;;;;;29.60;16.40;101451.22;5078541;28;1021;-25
2023/02/17 01:30:03;;;;;;;;;;;;;;;29.62;16.32;101451.91;5077717;28;1234;-22
2023/02/17 01:32:29;;;;;;;;;;;;;;;29.67;16.42;101445.94;5077551;28;1193;-22
2023/02/17 01:34:54;;;;;;;;;;;;;;;29.69;16.22;101449.31;5077098;28;1063;-24
2023/02/17 01:37:19;;;;;;;;;;;;;;;29.80;16.12;101440.72;5077027;28;1889;-23
2023/02/17 01:39:44;;;;;;;;;;;;;;;29.74;16.24;101441.47;5076355;28;1067;-21
2023/02/17 01:42:14;;;;;;;;;;;;;;;29.84;15.94;101437.63;5075624;28;1449;-24
2023/02/17 01:44:58;;;;;;;;;;;;;;;29.84;15.96;101441.19;5047171;28;1045;-24
2023/02/17 01:47:24;;;;;;;;;;;;;;;29.82;16.09;101445.94;5065679;28;1049;-21
2023/02/17 01:49:49;;;;;;;;;;;;;;;29.83;16.07;101444.91;5077059;28;1059;-23
2023/02/17 01:52:19;;;;;;;;;;;;;;;29.85;16.17;101439.31;5058798;28;1326;-25
2023/02/17 01:54:46;;;;;;;;;;;;;;;29.04;15.93;101447.75;5077102;28;1058;-26
2023/02/17 01:57:12;;;;;;;;;;;;;;;28.42;17.23;101435.84;5058554;28;1918;-25
2023/02/17 01:59:37;;;;;;;;;;;;;;;29.02;16.76;101433.53;5059196;28;1123;-24
2023/02/17 02:02:03;;;;;;;;;;;;;;;29.44;16.44;101434.06;5045667;28;1222;-24
2023/02/17 02:04:29;;;;;;;;;;;;;;;29.45;16.47;101437.59;5076807;28;1111;-25
2023/02/17 02:06:54;;;;;;;;;;;;;;;29.45;16.44;101426.75;5076896;28;1139;-25
2023/02/17 02:09:30;;;;;;;;;;;;;;;29.32;16.42;101430.94;5076746;28;1167;-23
2023/02/17 02:11:55;;;;;;;;;;;;;;;29.37;16.32;101429.53;5076522;28;1155;-25
2023/02/17 02:14:21;;;;;;;;;;;;;;;29.32;16.66;101428.25;5076358;28;1114;-28
2023/02/17 02:16:46;;;;;;;;;;;;;;;29.38;16.48;101417.69;5076563;28;1905;-24
2023/02/17 02:19:14;;;;;;;;;;;;;;;29.39;16.54;101422.09;5076560;28;1076;-23
2023/02/17 02:21:45;;;;;;;;;;;;;;;29.49;16.31;101419.13;5076611;28;1218;-23
2023/02/17 02:24:23;;;;;;;;;;;;;;;29.50;16.25;101418.06;5076161;28;1183;-24
2023/02/17 02:26:52;;;;;;;;;;;;;;;29.58;16.12;101413.44;5064672;28;1140;-22
2023/02/17 02:29:36;;;;;;;;;;;;;;;29.66;16.21;101407.13;5058380;28;1071;-23
2023/02/17 02:32:16;;;;;;;;;;;;;;;29.62;16.06;101413.09;5076350;28;1175;-23
2023/02/17 02:34:52;;;;;;;;;;;;;;;29.64;16.07;101406.47;5058535;28;1040;-24
2023/02/17 02:37:20;;;;;;;;;;;;;;;29.71;16.15;101406.59;5038272;28;1968;-23
2023/02/17 02:39:46;;;;;;;;;;;;;;;29.64;15.99;101406.47;5053665;28;1072;-24
2023/02/17 02:42:12;;;;;;;;;;;;;;;29.73;15.94;101404.50;5076512;28;1176;-24
2023/02/17 02:44:37;;;;;;;;;;;;;;;29.82;15.95;101408.00;5057669;28;1482;-22
2023/02/17 02:47:23;;;;;;;;;;;;;;;29.67;15.70;101407.97;5076156;28;1046;-27
2023/02/17 02:49:48;;;;;;;;;;;;;;;29.62;15.78;101410.38;5075270;28;1420;-23
2023/02/17 02:52:16;;;;;;;;;;;;;;;29.56;16.08;101415.47;5075888;28;1058;-21
2023/02/17 02:54:54;;;;;;;;;;;;;;;29.50;16.13;101418.06;5072089;28;1238;-22
2023/02/17 02:57:19;;;;;;;;;;;;;;;29.55;16.12;101416.53;5073265;28;1906;-26
2023/02/17 02:59:44;;;;;;;;;;;;;;;29.60;16.04;101416.00;5075603;28;1103;-24
2023/02/17 03:02:22;;;;;;;;;;;;;;;29.66;16.06;101425.28;5076168;28;1123;-24
2023/02/17 03:04:53;;;;;;;;;;;;;;;29.62;16.06;101416.66;5075694;28;1043;-23
2023/02/17 03:07:20;;;;;;;;;;;;;;;29.62;16.09;101410.38;5075926;28;1070;-24
2023/02/17 03:09:47;;;;;;;;;;;;;;;29.60;16.13;101417.84;5058096;28;1353;-23
2023/02/17 03:12:12;;;;;;;;;;;;;;;29.60;16.22;101418.69;5075815;28;1115;-24
2023/02/17 03:14:37;;;;;;;;;;;;;;;29.56;16.10;101425.50;5057433;28;1063;-24
2023/02/17 03:17:03;;;;;;;;;;;;;;;29.51;16.07;101426.03;5075905;28;1898;-22
2023/02/17 03:19:28;;;;;;;;;;;;;;;29.62;16.16;101419.38;5075847;28;1028;-23
2023/02/17 03:22:14;;;;;;;;;;;;;;;29.62;15.92;101421.22;5075555;28;1035;-25
2023/02/17 03:24:39;;;;;;;;;;;;;;;29.58;16.13;101420.72;5063274;28;1332;-24
2023/02/17 03:27:04;;;;;;;;;;;;;;;29.62;16.03;101419.38;5073834;28;1080;-22
2023/02/17 03:29:29;;;;;;;;;;;;;;;29.64;16.04;101420.03;5075696;28;1043;-22
2023/02/17 03:31:55;;;;;;;;;;;;;;;29.64;15.86;101419.19;5075857;28;1147;-22
2023/02/17 03:34:20;;;;;;;;;;;;;;;29.57;16.05;101419.91;5075162;28;1103;-27
2023/02/17 03:36:45;;;;;;;;;;;;;;;29.56;16.07;101418.19;5075295;28;1905;-27
2023/02/17 03:39:10;;;;;;;;;;;;;;;29.49;16.23;101425.38;5075415;28;1114;-23
2023/02/17 03:41:36;;;;;;;;;;;;;;;29.58;16.06;101420.72;5075590;28;1079;-23
2023/02/17 03:44:01;;;;;;;;;;;;;;;29.58;16.04;101426.13;5075392;28;1036;-23
2023/02/17 03:46:26;;;;;;;;;;;;;;;29.56;16.06;101420.09;5075247;28;1032;-25
2023/02/17 03:48:52;;;;;;;;;;;;;;;29.55;15.86;101426.50;5075294;28;865;-23
2023/02/17 03:51:18;;;;;;;;;;;;;;;29.46;16.13;101420.34;5075134;28;1214;-26
2023/02/17 03:53:43;;;;;;;;;;;;;;;29.51;16.01;101422.50;5075537;28;1085;-21
2023/02/17 03:56:09;;;;;;;;;;;;;;;29.43;16.16;101413.41;5075252;28;1164;-21
2023/02/17 03:58:34;;;;;;;;;;;;;;;29.43;16.19;101413.41;5075411;28;1905;-26
2023/02/17 04:00:59;;;;;;;;;;;;;;;29.43;16.21;101409.84;5073133;28;1267;-23
2023/02/17 04:03:25;;;;;;;;;;;;;;;29.44;13.91;101409.69;5074851;28;977;-21
2023/02/17 04:05:50;;;;;;;;;;;;;;;28.69;14.04;101404.78;5075465;28;1064;-23
2023/02/17 04:08:15;;;;;;;;;;;;;;;28.11;14.34;101399.59;5078476;28;1151;-24
2023/02/17 04:10:41;;;;;;;;;;;;;;;27.80;15.36;101403.00;5079193;28;1135;-22
2023/02/17 04:13:06;;;;;;;;;;;;;;;28.37;15.02;101395.78;5078793;28;1095;-22
2023/02/17 04:15:31;;;;;;;;;;;;;;;28.60;15.48;101400.41;5077104;28;1145;-22
2023/02/17 04:17:57;;;;;;;;;;;;;;;28.84;15.43;101402.13;5078604;28;1890;-24
2023/02/17 04:20:22;;;;;;;;;;;;;;;29.03;15.53;101402.69;5078816;28;1147;-22
2023/02/17 04:22:47;;;;;;;;;;;;;;;29.07;15.41;101404.03;5079179;28;1075;-22
2023/02/17 04:25:12;;;;;;;;;;;;;;;29.17;15.39;101397.53;5078439;28;1155;-22
2023/02/17 04:27:38;;;;;;;;;;;;;;;29.22;15.39;101395.13;5078736;28;1143;-25
2023/02/17 04:30:03;;;;;;;;;;;;;;;29.34;15.23;101398.25;5078445;28;1146;-23
2023/02/17 04:32:29;;;;;;;;;;;;;;;29.30;15.27;101395.06;5078725;28;1087;-22
2023/02/17 04:34:54;;;;;;;;;;;;;;;29.27;15.33;101391.84;5077827;28;1130;-22
2023/02/17 04:37:19;;;;;;;;;;;;;;;29.22;15.37;101403.25;5078175;28;1965;-24
2023/02/17 04:39:45;;;;;;;;;;;;;;;29.29;15.16;101398.81;5078319;28;1222;-21
2023/02/17 04:42:10;;;;;;;;;;;;;;;29.37;14.97;101397.88;5078404;28;1091;-22
2023/02/17 04:44:35;;;;;;;;;;;;;;;29.54;14.58;101408.56;5078809;28;1092;-22
2023/02/17 04:47:00;;;;;;;;;;;;;;;28.13;14.43;101405.63;5077368;28;1313;-22
2023/02/17 04:49:26;;;;;;;;;;;;;;;27.20;14.13;101414.00;5077711;28;860;-21
2023/02/17 04:51:51;;;;;;;;;;;;;;;27.35;15.10;101406.06;5078029;28;1297;-23
2023/02/17 04:54:16;;;;;;;;;;;;;;;28.16;14.31;101404.47;5078086;28;1620;-24
2023/02/17 04:56:42;;;;;;;;;;;;;;;28.39;13.75;101412.69;5078218;28;1894;-22
2023/02/17 04:59:07;;;;;;;;;;;;;;;28.19;14.47;101417.63;5078090;28;1226;-21
2023/02/17 05:01:32;;;;;;;;;;;;;;;28.14;13.95;101420.88;5076652;28;1088;-22
2023/02/17 05:03:57;;;;;;;;;;;;;;;28.19;13.48;101425.75;5078096;28;1003;-22
2023/02/17 05:06:23;;;;;;;;;;;;;;;28.40;13.38;101421.63;5077747;28;1123;-23
2023/02/17 05:08:49;;;;;;;;;;;;;;;28.68;13.83;101424.72;5077757;28;1428;-22
2023/02/17 05:11:14;;;;;;;;;;;;;;;28.67;14.52;101416.78;5077411;28;1082;-23
2023/02/17 05:13:40;;;;;;;;;;;;;;;28.77;14.50;101419.25;5077046;28;1071;-22
2023/02/17 05:16:05;;;;;;;;;;;;;;;28.63;14.92;101424.41;5077875;28;1205;-25
2023/02/17 05:18:30;;;;;;;;;;;;;;;28.89;14.63;101425.97;5077502;28;1898;-25
2023/02/17 05:20:56;;;;;;;;;;;;;;;28.88;14.82;101426.97;5077617;28;1135;-24
2023/02/17 05:23:21;;;;;;;;;;;;;;;28.91;14.93;101434.75;5077267;28;1120;-24
2023/02/17 05:25:46;;;;;;;;;;;;;;;28.88;15.14;101443.22;5076730;28;1188;-21
2023/02/17 05:28:12;;;;;;;;;;;;;;;29.02;15.15;101435.38;5059402;28;1348;-21
2023/02/17 05:30:37;;;;;;;;;;;;;;;28.92;15.11;101441.00;5077548;28;1059;-23
2023/02/17 05:33:02;;;;;;;;;;;;;;;28.96;15.27;101437.75;5077368;28;1047;-22
2023/02/17 05:35:27;;;;;;;;;;;;;;;29.07;15.30;101443.81;5064165;28;1191;-24
2023/02/17 05:37:53;;;;;;;;;;;;;;;29.34;15.18;101447.84;5069773;28;1906;-26
2023/02/17 05:40:18;;;;;;;;;;;;;;;29.34;15.53;101444.31;5071301;28;1040;-21
2023/02/17 05:42:43;;;;;;;;;;;;;;;29.42;15.67;101446.09;5075859;28;1079;-24
2023/02/17 05:45:09;;;;;;;;;;;;;;;29.43;15.74;101445.91;5076338;28;1048;-22
2023/02/17 05:47:34;;;;;;;;;;;;;;;29.40;15.75;101445.44;5075598;28;1116;-24
2023/02/17 05:50:00;;;;;;;;;;;;;;;29.51;15.71;101453.13;5075294;28;1001;-25
2023/02/17 05:52:25;;;;;;;;;;;;;;;29.49;15.53;101452.50;5074634;28;1315;-23
2023/02/17 05:54:50;;;;;;;;;;;;;;;29.53;15.61;101455.69;5062517;28;1015;-23
2023/02/17 05:57:15;;;;;;;;;;;;;;;29.48;15.67;101449.97;5067513;28;2631;-24
2023/02/17 05:59:41;;;;;;;;;;;;;;;29.52;15.61;101454.00;5075468;28;1096;-22
2023/02/17 06:02:06;;;;;;;;;;;;;;;29.51;15.92;101461.25;5075254;28;899;-22
2023/02/17 06:04:31;;;;;;;;;;;;;;;29.50;16.00;101459.59;5075333;28;1012;-26
2023/02/17 06:06:57;;;;;;;;;;;;;;;29.43;16.10;101451.34;5075138;28;1056;-23
2023/02/17 06:09:22;;;;;;;;;;;;;;;29.42;16.26;101452.38;5074986;28;1083;-21
2023/02/17 06:11:48;;;;;;;;;;;;;;;29.42;16.31;101451.53;5075590;28;1171;-22
2023/02/17 06:14:13;;;;;;;;;;;;;;;29.45;16.08;101453.88;5074180;28;1039;-25
2023/02/17 06:16:38;;;;;;;;;;;;;;;29.47;15.92;101454.53;5075206;28;1897;-22
2023/02/17 06:19:04;;;;;;;;;;;;;;;29.62;16.28;101457.31;5075222;28;1557;-22
2023/02/17 06:21:29;;;;;;;;;;;;;;;29.80;16.00;101454.28;5074549;28;1031;-23
2023/02/17 06:23:54;;;;;;;;;;;;;;;29.98;16.09;101447.66;5075662;28;1072;-23
2023/02/17 06:26:20;;;;;;;;;;;;;;;30.03;15.92;101447.13;5075304;28;1106;-22
2023/02/17 06:28:45;;;;;;;;;;;;;;;30.20;15.95;101447.78;5074900;28;2758;-22
2023/02/17 06:31:10;;;;;;;;;;;;;;;29.67;16.06;101356.44;5075036;28;1064;-21
2023/02/17 06:33:36;;;;;;;;;;;;;;;30.38;15.74;101452.81;5074782;28;1218;-25
2023/02/17 06:36:01;;;;;;;;;;;;;;;30.28;15.91;101457.72;5075455;28;1170;-24
2023/02/17 06:38:26;;;;;;;;;;;;;;;29.26;16.62;101461.47;5074634;28;1969;-24
2023/02/17 06:40:52;;;;;;;;;;;;;;;29.85;16.29;101461.00;5074718;28;1056;-23
2023/02/17 06:43:17;;;;;;;;;;;;;;;29.93;16.17;101463.63;5075331;28;1199;-22
2023/02/17 06:45:42;;;;;;;;;;;;;;;29.98;16.01;101461.22;5075294;28;1091;-25
2023/02/17 06:48:08;;;;;;;;;;;;;;;29.90;15.96;101462.16;5076123;28;1106;-28
2023/02/17 06:50:33;;;;;;;;;;;;;;;29.86;15.89;101463.56;5070984;28;1258;-24
2023/02/17 06:52:59;;;;;;;;;;;;;;;29.88;15.84;101458.78;5075211;28;1115;-23
2023/02/17 06:55:24;;;;;;;;;;;;;;;29.72;15.89;101457.06;5075576;28;1167;-22
2023/02/17 06:57:49;;;;;;;;;;;;;;;29.93;15.99;101471.75;5075440;28;1906;-25
2023/02/17 07:00:15;;;;;;;;;;;;;;;29.50;16.40;101475.00;5075494;28;1091;-24
2023/02/17 07:02:40;;;;;;;;;;;;;;;28.74;17.27;101469.22;5075087;28;848;-23
2023/02/17 07:05:05;;;;;;;;;;;;;;;28.66;17.13;101474.66;5074933;28;1052;-25
2023/02/17 07:07:31;;;;;;;;;;;;;;;28.42;17.53;101466.47;5075038;28;1082;-23
2023/02/17 07:09:56;;;;;;;;;;;;;;;28.29;17.49;101466.13;5069551;28;1079;-25
2023/02/17 07:12:21;;;;;;;;;;;;;;;28.32;17.75;101463.06;5067305;28;1043;-24
2023/02/17 07:14:47;;;;;;;;;;;;;;;28.14;17.61;101472.25;5074421;28;1055;-27
2023/02/17 07:17:12;;;;;;;;;;;;;;;28.02;17.61;101466.38;5075491;28;1898;-24
2023/02/17 07:19:37;;;;;;;;;;;;;;;28.09;18.07;101475.47;5075155;28;1099;-23
2023/02/17 07:22:03;;;;;;;;;;;;;;;27.99;17.96;101470.25;5075854;28;1090;-23
2023/02/17 07:24:28;;;;;;;;;;;;;;;27.85;18.43;101482.59;5075321;28;1043;-22
2023/02/17 07:26:54;;;;;;;;;;;;;;;27.93;18.47;101472.78;5074946;28;858;-21
2023/02/17 07:29:20;;;;;;;;;;;;;;;28.07;17.63;101469.41;5075540;28;1004;-21
2023/02/17 07:31:45;;;;;;;;;;;;;;;28.01;17.78;101472.78;5057482;28;1234;-22
2023/02/17 07:34:11;;;;;;;;;;;;;;;28.06;17.97;101469.56;5074550;28;1091;-23
2023/02/17 07:36:36;;;;;;;;;;;;;;;27.99;18.05;101470.25;5075472;28;1929;-24
2023/02/17 07:39:01;;;;;;;;;;;;;;;28.05;17.92;101467.88;5074971;28;889;-23
2023/02/17 07:41:27;;;;;;;;;;;;;;;28.07;17.86;101473.94;5072962;28;1182;-23
2023/02/17 07:43:55;;;;;;;;;;;;;;;28.12;17.67;101474.28;5068337;28;1044;-14
2023/02/17 07:46:21;;;;;;;;;;;;;;;28.01;17.89;101480.06;5075974;28;1246;-14
2023/02/17 07:48:46;;;;;;;;;;;;;;;28.11;17.85;101480.72;5078521;28;1031;-14
2023/02/17 07:51:13;;;;;;;;;;;;;;;27.94;18.02;101480.75;5078574;28;1171;-14
2023/02/17 07:53:38;;;;;;;;;;;;;;;27.86;18.03;101478.06;5078657;28;1091;-14
2023/02/17 07:56:04;;;;;;;;;;;;;;;28.11;17.78;101473.44;5078898;28;1024;-14
2023/02/17 07:58:30;;;;;;;;;;;;;;;27.63;18.26;101482.25;5078552;28;1974;-14
2023/02/17 08:00:55;;;;;;;;;;;;;;;27.52;18.22;101487.97;5078620;28;1091;-14
2023/02/17 08:03:21;;;;;;;;;;;;;;;27.40;18.56;101476.66;5078026;28;937;-14
2023/02/17 08:05:49;;;;;;;;;;;;;;;27.28;18.82;101473.44;5078321;28;1004;-14
2023/02/17 08:13:43;;;;;;;;;;;;;;;26.92;19.35;101465.56;5075579;28;1036;-25
2023/02/17 08:16:09;;;;;;;;;;;;;;;26.85;19.28;101471.63;5067056;28;1414;-23
2023/02/17 08:18:34;;;;;;;;;;;;;;;26.41;19.88;101470.75;5078584;28;1969;-21
2023/02/17 08:21:00;;;;;;;;;;;;;;;26.32;19.81;101473.53;5078771;28;1027;-21
2023/02/17 08:23:25;;;;;;;;;;;;;;;26.23;20.17;101470.78;5078436;28;1052;-21
2023/02/17 08:25:50;;;;;;;;;;;;;;;26.49;20.06;101471.81;5077919;28;1127;-25
2023/02/17 08:28:16;;;;;;;;;;;;;;;26.52;19.94;101475.03;5078037;28;1094;-21
2023/02/17 08:30:42;;;;;;;;;;;;;;;26.71;19.35;101477.66;5078566;28;1083;-22
2023/02/17 08:33:07;;;;;;;;;;;;;;;26.84;19.27;101478.00;5078649;28;1214;-22
2023/02/17 08:35:32;;;;;;;;;;;;;;;26.81;19.27;101477.50;5078613;28;1139;-23
2023/02/17 08:37:57;;;;;;;;;;;;;;;26.75;19.39;101476.28;5077639;28;2314;-22
2023/02/17 08:40:23;;;;;;;;;;;;;;;26.73;19.48;101472.91;5078166;28;1179;-24
2023/02/17 08:42:48;;;;;;;;;;;;;;;26.78;19.38;101471.44;5078663;28;1060;-23
2023/02/17 08:45:14;;;;;;;;;;;;;;;26.76;19.72;101475.28;5058950;28;1036;-21
2023/02/17 08:47:39;;;;;;;;;;;;;;;26.71;19.25;101477.66;5070957;28;1168;-23
2023/02/17 08:50:04;;;;;;;;;;;;;;;26.71;19.46;101467.69;5077828;28;1131;-22
2023/02/17 08:52:30;;;;;;;;;;;;;;;26.82;19.44;101476.50;5077069;28;1177;-23
2023/02/17 08:54:55;;;;;;;;;;;;;;;27.16;19.17;101478.28;5077753;28;1092;-23
2023/02/17 08:57:21;;;;;;;;;;;;;;;27.33;19.13;101473.78;5077931;28;1917;-24
2023/02/17 08:59:48;;;;;;;;;;;;;;;27.77;18.61;101473.66;5077772;28;1175;-22
2023/02/17 09:02:14;;;;;;;;;;;;;;;27.02;19.30;101467.16;5074454;28;1048;-22
2023/02/17 09:04:39;;;;;;;;;;;;;;;26.91;19.39;101464.69;5076590;28;1153;-22
2023/02/17 09:07:07;;;;;;;;;;;;;;;27.75;18.75;101469.28;5077601;28;1086;-23
2023/02/17 09:09:33;;;;;;;;;;;;;;;27.28;19.07;101478.00;5059909;28;1204;-21
2023/02/17 09:11:59;;;;;;;;;;;;;;;27.12;19.29;101476.94;5078047;28;1218;-22
2023/02/17 09:14:24;;;;;;;;;;;;;;;27.05;19.30;101470.50;5077413;28;1142;-23
2023/02/17 09:16:50;;;;;;;;;;;;;;;26.95;19.15;101467.91;5077269;28;1897;-22
2023/02/17 09:19:15;;;;;;;;;;;;;;;26.92;19.56;101465.56;5077450;28;1055;-22
2023/02/17 09:21:41;;;;;;;;;;;;;;;26.93;19.45;101469.94;5070433;28;1150;-22
2023/02/17 09:24:06;;;;;;;;;;;;;;;26.93;19.17;101460.00;5076126;28;900;-22
2023/02/17 09:26:33;;;;;;;;;;;;;;;26.99;19.30;101453.91;5076601;28;1142;-23
2023/02/17 09:29:00;;;;;;;;;;;;;;;26.99;19.41;101451.22;5062014;28;897;-24
2023/02/17 09:31:25;;;;;;;;;;;;;;;26.98;18.95;101457.66;5058967;28;922;-24
2023/02/17 09:33:50;;;;;;;;;;;;;;;27.05;19.31;101460.56;5063795;28;1011;-21
2023/02/17 09:36:17;;;;;;;;;;;;;;;27.14;19.07;101464.13;5076472;28;1008;-23
2023/02/17 09:38:43;;;;;;;;;;;;;;;27.17;19.27;101458.41;5076291;28;1943;-23
2023/02/17 09:41:11;;;;;;;;;;;;;;;27.25;18.91;101461.09;5076384;28;1079;-23
2023/02/17 09:43:37;;;;;;;;;;;;;;;27.24;19.02;101450.47;5076378;28;1035;-24
2023/02/17 09:46:11;;;;;;;;;;;;;;;27.26;18.91;101459.22;5058970;28;1103;-22
2023/02/17 09:48:36;;;;;;;;;;;;;;;27.19;19.25;101450.97;5050380;28;1130;-23
2023/02/17 09:51:01;;;;;;;;;;;;;;;27.22;19.25;101449.78;5064607;28;1211;-24
2023/02/17 09:53:30;;;;;;;;;;;;;;;27.22;18.89;101449.78;5064639;28;1043;-23
2023/02/17 09:55:56;;;;;;;;;;;;;;;27.08;19.42;101441.31;5076522;28;1086;-23
2023/02/17 09:58:22;;;;;;;;;;;;;;;27.31;18.82;101439.84;5058526;28;1996;-23
2023/02/17 10:00:51;;;;;;;;;;;;;;;27.22;19.17;101442.53;5076075;28;1016;-21
2023/02/17 10:03:16;;;;;;;;;;;;;;;27.30;19.27;101441.69;5076312;28;1095;-23
2023/02/17 10:05:44;;;;;;;;;;;;;;;27.23;18.86;101432.56;5074988;28;1111;-21
2023/02/17 10:08:16;;;;;;;;;;;;;;;27.22;19.17;101426.34;5057671;28;1012;-24
2023/02/17 10:10:44;;;;;;;;;;;;;;;27.18;18.84;101426.81;5057811;28;1043;-23
2023/02/17 10:13:09;;;;;;;;;;;;;;;27.21;18.89;101432.72;5058238;28;1095;-21
2023/02/17 10:15:35;;;;;;;;;;;;;;;27.14;19.10;101429.84;5075882;28;1428;-22
2023/02/17 10:18:04;;;;;;;;;;;;;;;27.14;18.97;101432.56;5058667;28;1901;-21
2023/02/17 10:20:33;;;;;;;;;;;;;;;27.09;19.09;101423.28;5070676;28;1067;-21
2023/02/17 10:23:21;;;;;;;;;;;;;;;26.92;19.55;101422.34;5075456;28;1087;-25
2023/02/17 10:25:52;;;;;;;;;;;;;;;26.82;19.51;101411.72;5064887;28;1127;-23
2023/02/17 10:28:21;;;;;;;;;;;;;;;26.85;19.16;101405.97;5056696;28;869;-22
2023/02/17 10:30:49;;;;;;;;;;;;;;;26.82;19.14;101403.63;5046408;28;1114;-20
2023/02/17 10:33:28;;;;;;;;;;;;;;;26.76;19.53;101402.41;5076422;28;1103;-24
2023/02/17 10:36:06;;;;;;;;;;;;;;;26.82;19.53;101395.50;5057931;28;1389;-21
2023/02/17 10:39:00;;;;;;;;;;;;;;;26.84;19.55;101388.09;5075776;28;1975;-22
2023/02/17 10:41:26;;;;;;;;;;;;;;;26.82;19.30;101388.28;5057955;28;1266;-22
2023/02/17 10:43:51;;;;;;;;;;;;;;;27.00;19.00;101390.84;5057344;28;1084;-23
2023/02/17 10:46:17;;;;;;;;;;;;;;;26.92;19.33;101388.13;5057740;28;981;-20
2023/02/17 10:48:44;;;;;;;;;;;;;;;27.10;19.27;101387.16;5057691;28;1060;-21
2023/02/17 10:51:11;;;;;;;;;;;;;;;27.03;18.67;101386.97;5074841;28;1178;-22
2023/02/17 10:53:37;;;;;;;;;;;;;;;27.10;18.85;101376.34;5075687;28;1080;-23
2023/02/17 10:56:08;;;;;;;;;;;;;;;27.16;17.97;101391.06;5057970;28;1016;-23
2023/02/17 10:58:47;;;;;;;;;;;;;;;27.05;17.58;101393.06;5075392;28;1967;-22
2023/02/17 11:01:12;;;;;;;;;;;;;;;26.94;17.43;101367.22;5057688;28;1112;-21
2023/02/17 11:03:39;;;;;;;;;;;;;;;27.02;17.17;101375.34;5075537;28;1202;-22
2023/02/17 11:06:05;;;;;;;;;;;;;;;26.97;17.01;101377.66;5075398;28;1004;-22
2023/02/17 11:08:33;;;;;;;;;;;;;;;26.93;17.00;101370.91;5057953;28;1079;-21
2023/02/17 11:10:59;;;;;;;;;;;;;;;27.13;16.61;101366.06;5057273;28;1103;-21
2023/02/17 11:13:36;;;;;;;;;;;;;;;27.13;16.61;101370.59;5057579;28;1124;-23
2023/02/17 11:16:02;;;;;;;;;;;;;;;27.14;16.24;101362.34;5066636;28;862;-21
2023/02/17 11:18:28;;;;;;;;;;;;;;;27.23;16.28;101357.78;5079611;28;1886;-23
2023/02/17 11:21:00;;;;;;;;;;;;;;;27.45;16.59;101362.66;5060695;28;1175;-23
2023/02/17 11:23:25;;;;;;;;;;;;;;;27.37;17.07;101358.13;5078822;28;1055;-21
2023/02/17 11:26:20;;;;;;;;;;;;;;;27.50;17.00;101355.75;5079733;28;1178;-23
2023/02/17 11:28:45;;;;;;;;;;;;;;;27.59;16.84;101347.63;5060143;28;1356;-21
2023/02/17 11:31:23;;;;;;;;;;;;;;;27.57;17.23;101350.50;5079399;28;1027;-22
2023/02/17 11:33:48;;;;;;;;;;;;;;;27.65;17.39;101354.19;5079395;28;1116;-22
2023/02/17 11:36:21;;;;;;;;;;;;;;;27.80;16.87;101351.66;5079115;28;1094;-21
2023/02/17 11:38:46;;;;;;;;;;;;;;;27.83;17.16;101341.34;5079086;28;1981;-21
2023/02/17 11:41:12;;;;;;;;;;;;;;;27.99;16.80;101347.72;5075064;28;901;-21
2023/02/17 11:43:38;;;;;;;;;;;;;;;28.17;16.64;101343.94;5071630;28;1087;-23
2023/02/17 11:46:06;;;;;;;;;;;;;;;28.32;16.40;101338.63;5072462;28;1199;-22
2023/02/17 11:48:34;;;;;;;;;;;;;;;28.22;16.76;101336.97;5066860;28;1163;-21
2023/02/17 11:51:18;;;;;;;;;;;;;;;28.16;17.45;101334.97;5078336;28;1036;-22
2023/02/17 11:53:55;;;;;;;;;;;;;;;27.97;17.32;101330.81;5069689;28;1136;-22
2023/02/17 11:56:27;;;;;;;;;;;;;;;28.02;17.25;101325.75;5078573;28;1031;-22
2023/02/17 11:58:58;;;;;;;;;;;;;;;28.16;17.35;101329.56;5061114;28;1902;-23
2023/02/17 12:01:32;;;;;;;;;;;;;;;28.28;17.20;101327.31;5078905;28;1016;-20
2023/02/17 12:04:13;;;;;;;;;;;;;;;28.33;17.36;101327.66;5078238;28;1035;-22
2023/02/17 12:06:42;;;;;;;;;;;;;;;28.54;17.22;101322.63;5078826;28;1048;-23
2023/02/17 12:09:27;;;;;;;;;;;;;;;28.51;17.09;101325.69;5078730;28;1151;-22
2023/02/17 12:12:11;;;;;;;;;;;;;;;28.68;17.05;101324.56;5060009;28;1012;-22
2023/02/17 12:14:55;;;;;;;;;;;;;;;28.52;17.34;101328.22;5078729;28;1245;-21
2023/02/17 12:17:39;;;;;;;;;;;;;;;28.75;16.93;101318.41;5078435;28;1898;-22
2023/02/17 12:20:19;;;;;;;;;;;;;;;28.59;17.14;101309.41;5082610;28;1135;-20
2023/02/17 12:23:04;;;;;;;;;;;;;;;28.64;17.21;101315.13;5058715;28;1072;-22
2023/02/17 12:25:35;;;;;;;;;;;;;;;28.82;16.94;101312.13;5036625;28;1065;-22
2023/02/17 12:28:20;;;;;;;;;;;;;;;28.83;16.85;101310.22;5059490;28;1132;-22
2023/02/17 12:31:03;;;;;;;;;;;;;;;28.81;16.78;101309.59;5066587;28;1136;-23
2023/02/17 12:33:35;;;;;;;;;;;;;;;28.98;16.88;101309.50;5077116;28;987;-24
2023/02/17 12:36:01;;;;;;;;;;;;;;;28.99;16.80;101316.59;5078451;28;1147;-24
2023/02/17 12:38:29;;;;;;;;;;;;;;;28.97;16.89;101311.34;5078164;28;1960;-21
2023/02/17 12:41:02;;;;;;;;;;;;;;;29.02;16.70;101310.78;5077383;28;1028;-25
2023/02/17 12:43:35;;;;;;;;;;;;;;;28.94;16.84;101317.09;5077400;28;1163;-21
2023/02/17 12:46:02;;;;;;;;;;;;;;;28.84;16.82;101312.75;5060328;28;1114;-23
2023/02/17 12:48:35;;;;;;;;;;;;;;;28.55;17.26;101327.00;5059922;28;1160;-22
2023/02/17 12:51:07;;;;;;;;;;;;;;;28.53;17.16;101318.25;5077496;28;1248;-22
2023/02/17 12:53:40;;;;;;;;;;;;;;;28.67;17.12;101324.75;5071386;28;845;-21